createdAt,value
2023-04-28T00:00:10.990Z,36.39
2023-04-28T00:05:32.813Z,36.53
2023-04-28T00:11:01.997Z,36.44
2023-04-28T00:16:23.765Z,36.45
2023-04-28T00:21:45.854Z,36.74
2023-04-28T00:27:07.760Z,36.85
2023-04-28T00:32:29.760Z,36.99
2023-04-28T00:37:51.741Z,37.08
2023-04-28T00:43:13.733Z,37.19
2023-04-28T00:48:35.724Z,37.22
2023-04-28T00:53:57.728Z,37.26
2023-04-28T00:59:19.728Z,37.36
2023-04-28T01:04:43.759Z,37.63
2023-04-28T01:10:05.754Z,37.70
2023-04-28T01:15:31.726Z,37.84
2023-04-28T01:20:53.725Z,37.94
2023-04-28T01:26:15.727Z,37.77
2023-04-28T01:31:37.851Z,38.00
2023-04-28T01:36:59.761Z,38.09
2023-04-28T01:42:21.735Z,38.20
2023-04-28T01:47:43.763Z,38.28
2023-04-28T01:53:05.718Z,38.09
2023-04-28T01:58:27.710Z,38.44
2023-04-28T02:03:49.808Z,38.37
2023-04-28T02:09:11.742Z,38.62
2023-04-28T02:14:33.704Z,38.68
2023-04-28T02:19:55.707Z,38.83
2023-04-28T02:25:17.706Z,38.63
2023-04-28T02:30:39.702Z,38.67
2023-04-28T02:36:08.707Z,38.75
2023-04-28T02:41:30.718Z,38.70
2023-04-28T02:46:52.710Z,38.96
2023-04-28T02:52:14.693Z,39.07
2023-04-28T02:57:36.698Z,38.95
2023-04-28T03:02:58.844Z,39.21
2023-04-28T03:08:20.725Z,39.03
2023-04-28T03:13:42.706Z,39.34
2023-04-28T03:19:04.690Z,39.38
2023-04-28T03:24:26.690Z,39.28
2023-04-28T03:29:48.687Z,39.24
2023-04-28T03:35:10.694Z,39.34
2023-04-28T03:40:32.743Z,39.29
2023-04-28T03:46:00.752Z,39.35
2023-04-28T03:51:22.684Z,39.59
2023-04-28T03:56:44.678Z,39.58
2023-04-28T04:02:06.736Z,39.79
2023-04-28T04:07:28.692Z,39.69
2023-04-28T04:12:50.689Z,39.68
2023-04-28T04:18:12.681Z,39.67
2023-04-28T04:24:00.687Z,39.50
2023-04-28T04:29:22.677Z,39.81
2023-04-28T04:34:44.671Z,39.68
2023-04-28T04:40:06.690Z,39.77
2023-04-28T04:45:37.691Z,39.72
2023-04-28T04:51:00.699Z,39.67
2023-04-28T04:56:23.665Z,39.84
2023-04-28T05:01:45.716Z,39.94
2023-04-28T05:07:07.671Z,39.87
2023-04-28T05:12:30.684Z,39.74
2023-04-28T05:17:52.730Z,40.06
2023-04-28T05:23:14.703Z,39.79
2023-04-28T05:28:37.658Z,39.91
2023-04-28T05:33:59.673Z,40.03
2023-04-28T05:39:21.659Z,40.22
2023-04-28T05:44:46.678Z,40.19
2023-04-28T05:50:08.657Z,40.22
2023-04-28T05:55:31.732Z,40.19
2023-04-28T06:00:53.680Z,40.09
2023-04-28T06:06:15.721Z,40.52
2023-04-28T06:11:44.662Z,40.38
2023-04-28T06:17:06.674Z,40.53
2023-04-28T06:22:28.676Z,40.83
2023-04-28T06:27:50.660Z,40.68
2023-04-28T06:33:12.646Z,40.81
2023-04-28T06:38:34.662Z,40.92
2023-04-28T06:43:57.658Z,40.93
2023-04-28T06:49:21.645Z,40.65
2023-04-28T06:54:47.674Z,40.95
2023-04-28T07:00:10.646Z,41.31
2023-04-28T07:05:32.637Z,41.42
2023-04-28T07:10:54.634Z,41.86
2023-04-28T07:16:18.657Z,42.18
2023-04-28T07:21:40.639Z,42.50
2023-04-28T07:27:02.638Z,42.90
2023-04-28T07:32:24.794Z,43.22
2023-04-28T07:37:46.635Z,43.61
2023-04-28T07:43:08.655Z,43.71
2023-04-28T07:48:30.743Z,44.13
2023-04-28T07:53:52.660Z,44.42
2023-04-28T07:59:14.612Z,44.65
2023-04-28T08:04:38.811Z,44.65
2023-04-28T08:10:07.622Z,44.95
2023-04-28T08:15:29.660Z,45.16
2023-04-28T08:20:51.641Z,45.57
2023-04-28T08:26:13.639Z,45.50
2023-04-28T08:31:35.669Z,46.14
2023-04-28T08:36:58.655Z,46.21
2023-04-28T08:42:21.626Z,46.58
2023-04-28T08:47:53.655Z,47.06
2023-04-28T08:53:17.626Z,47.05
2023-04-28T08:58:42.636Z,47.41
2023-04-28T09:04:04.776Z,47.79
2023-04-28T09:09:26.601Z,47.67
2023-04-28T09:14:50.617Z,48.11
2023-04-28T09:20:29.601Z,48.40
2023-04-28T09:25:51.609Z,48.91
2023-04-28T09:31:28.752Z,49.21
2023-04-28T09:36:50.632Z,49.47
2023-04-28T09:42:12.617Z,49.28
2023-04-28T09:47:34.641Z,49.71
2023-04-28T09:53:03.608Z,49.59
2023-04-28T09:58:26.631Z,49.70
2023-04-28T10:03:50.912Z,49.92
2023-04-28T10:09:12.607Z,49.93
2023-04-28T10:14:35.589Z,50.03
2023-04-28T10:19:59.598Z,49.92
2023-04-28T10:25:32.631Z,50.19
2023-04-28T10:30:54.636Z,50.50
2023-04-28T10:36:19.383Z,50.71
2023-04-28T10:41:45.604Z,50.88
2023-04-28T10:47:15.605Z,50.83
2023-04-28T10:52:46.596Z,50.99
2023-04-28T10:58:34.600Z,51.37
2023-04-28T11:04:11.931Z,52.00
2023-04-28T11:09:39.597Z,51.67
2023-04-28T11:15:01.603Z,51.96
2023-04-28T11:20:29.581Z,52.35
2023-04-28T11:26:10.573Z,52.09
2023-04-28T11:31:32.628Z,51.99
2023-04-28T11:36:55.088Z,52.63
2023-04-28T11:42:17.790Z,52.54
2023-04-28T11:47:44.637Z,52.86
2023-04-28T11:53:06.582Z,52.46
2023-04-28T11:58:35.631Z,52.41
2023-04-28T12:03:57.693Z,52.62
2023-04-28T12:09:32.622Z,53.05
2023-04-28T12:15:05.601Z,53.08
2023-04-28T12:20:49.600Z,52.88
2023-04-28T12:26:11.630Z,52.83
2023-04-28T12:31:33.611Z,53.08
2023-04-28T12:36:55.569Z,53.33
2023-04-28T12:42:17.575Z,53.30
2023-04-28T12:47:39.598Z,53.63
2023-04-28T12:53:02.582Z,54.07
2023-04-28T12:58:24.564Z,54.01
2023-04-28T13:03:46.631Z,54.71
2023-04-28T13:09:08.617Z,54.24
2023-04-28T13:14:30.567Z,54.50
2023-04-28T13:19:52.580Z,54.53
2023-04-28T13:25:14.561Z,54.46
2023-04-28T13:30:36.576Z,54.90
2023-04-28T13:35:58.556Z,54.86
2023-04-28T13:41:20.589Z,54.22
2023-04-28T13:46:42.560Z,54.78
2023-04-28T13:52:04.566Z,54.80
2023-04-28T13:57:26.538Z,54.81
2023-04-28T14:02:49.760Z,55.13
2023-04-28T14:08:11.553Z,55.26
2023-04-28T14:13:33.548Z,55.15
2023-04-28T14:18:55.551Z,55.29
2023-04-28T14:24:17.559Z,55.30
2023-04-28T14:29:39.532Z,55.44
2023-04-28T14:35:01.560Z,55.36
2023-04-28T14:40:23.578Z,55.65
2023-04-28T14:46:02.426Z,55.50
2023-04-28T14:51:24.438Z,55.58
2023-04-28T14:56:48.430Z,56.14
2023-04-28T15:02:14.713Z,55.89
2023-04-28T15:07:38.414Z,55.95
2023-04-28T15:13:00.394Z,56.10
2023-04-28T15:18:22.420Z,55.91
2023-04-28T15:23:44.404Z,55.98
2023-04-28T15:29:08.400Z,56.11
2023-04-28T15:34:30.413Z,55.84
2023-04-28T15:39:53.448Z,56.37
2023-04-28T15:45:22.470Z,56.32
2023-04-28T15:50:47.413Z,56.34
2023-04-28T15:56:09.394Z,56.51
2023-04-28T16:01:31.421Z,56.36
2023-04-28T16:06:56.412Z,56.55
2023-04-28T16:12:18.468Z,56.51
2023-04-28T16:17:42.500Z,56.68
2023-04-28T16:23:04.425Z,56.65
2023-04-28T16:28:26.423Z,56.73
2023-04-28T16:33:48.505Z,56.49
2023-04-28T16:39:10.461Z,56.75
2023-04-28T16:44:32.462Z,56.83
2023-04-28T16:49:54.485Z,56.62
2023-04-28T16:55:22.280Z,57.01
2023-04-28T17:00:44.409Z,57.25
2023-04-28T17:06:06.392Z,57.00
2023-04-28T17:11:30.397Z,57.29
2023-04-28T17:16:52.397Z,57.10
2023-04-28T17:22:15.410Z,56.80
2023-04-28T17:27:38.395Z,57.11
2023-04-28T17:33:00.532Z,57.52
2023-04-28T17:38:24.392Z,57.06
2023-04-28T17:43:46.386Z,57.26
2023-04-28T17:49:08.400Z,57.31
2023-04-28T17:54:32.386Z,57.04
2023-04-28T17:59:57.380Z,57.09
2023-04-28T18:05:27.402Z,57.34
2023-04-28T18:10:52.802Z,56.84
2023-04-28T18:16:17.413Z,57.38
2023-04-28T18:21:40.439Z,57.44
2023-04-28T18:27:02.383Z,57.63
2023-04-28T18:32:25.422Z,57.76
2023-04-28T18:37:49.579Z,57.34
2023-04-28T18:43:12.442Z,57.58
2023-04-28T18:48:35.416Z,57.91
2023-04-28T18:53:57.380Z,57.90
2023-04-28T18:59:19.380Z,58.17
2023-04-28T19:04:41.411Z,58.00
2023-04-28T19:10:03.363Z,58.20
2023-04-28T19:15:25.376Z,58.08
2023-04-28T19:20:49.368Z,58.23
2023-04-28T19:26:15.363Z,58.08
2023-04-28T19:31:37.377Z,58.40
2023-04-28T19:37:02.392Z,58.22
2023-04-28T19:42:27.397Z,58.08
2023-04-28T19:47:49.408Z,57.98
2023-04-28T19:53:11.357Z,58.03
2023-04-28T19:58:35.378Z,57.99
2023-04-28T20:03:57.621Z,58.18
2023-04-28T20:09:19.383Z,57.88
2023-04-28T20:14:44.348Z,57.80
2023-04-28T20:20:06.355Z,57.82
2023-04-28T20:25:29.339Z,58.01
2023-04-28T20:30:51.348Z,57.82
2023-04-28T20:36:13.348Z,58.16
2023-04-28T20:41:38.406Z,58.00
2023-04-28T20:47:08.414Z,57.97
2023-04-28T20:52:33.756Z,58.01
2023-04-28T20:57:55.331Z,58.15
2023-04-28T21:03:21.506Z,58.44
2023-04-28T21:08:48.352Z,58.28
2023-04-28T21:14:10.353Z,58.50
2023-04-28T21:19:32.373Z,58.56
2023-04-28T21:24:54.340Z,58.71
2023-04-28T21:30:21.330Z,58.62
2023-04-28T21:35:43.313Z,58.82
2023-04-28T21:41:05.332Z,58.55
2023-04-28T21:46:34.418Z,58.53
2023-04-28T21:51:56.369Z,58.32
2023-04-28T21:57:18.348Z,58.42
2023-04-28T22:02:42.492Z,57.98
2023-04-28T22:08:04.326Z,58.02
2023-04-28T22:13:26.316Z,58.10
2023-04-28T22:18:48.338Z,58.08
2023-04-28T22:24:10.334Z,57.93
2023-04-28T22:29:32.336Z,57.99
2023-04-28T22:34:55.344Z,58.07
2023-04-28T22:40:17.349Z,57.94
2023-04-28T22:45:41.308Z,57.89
2023-04-28T22:51:03.308Z,58.09
2023-04-28T22:56:25.342Z,58.04
2023-04-28T23:01:47.328Z,57.87
2023-04-28T23:07:09.340Z,57.78
2023-04-28T23:12:33.314Z,57.77
2023-04-28T23:17:55.425Z,57.77
2023-04-28T23:23:17.310Z,57.89
2023-04-28T23:28:39.344Z,57.82
2023-04-28T23:34:02.289Z,58.05
2023-04-28T23:39:26.319Z,58.31
2023-04-28T23:44:48.307Z,58.12
2023-04-28T23:50:11.301Z,58.26
2023-04-28T23:55:33.307Z,58.08
